sensor_id;sensor_type;location;lat;lon;timestamp;pressure;altitude;pressure_sealevel;temperature;humidity
70445;BME280;57902;49.638;11.070;2022-08-14T00:02:38;98025.38;;;18.55;71.31
70445;BME280;57902;49.638;11.070;2022-08-14T00:05:07;98029.78;;;18.54;71.44
70445;BME280;57902;49.638;11.070;2022-08-14T00:07:36;98028.19;;;18.52;70.27
70445;BME280;57902;49.638;11.070;2022-08-14T00:10:10;98025.03;;;18.47;71.41
70445;BME280;57902;49.638;11.070;2022-08-14T00:16:21;98020.97;;;18.43;72.31
70445;BME280;57902;49.638;11.070;2022-08-14T00:19:07;98023.50;;;18.44;72.16
70445;BME280;57902;49.638;11.070;2022-08-14T00:21:46;98022.63;;;18.44;72.47
70445;BME280;57902;49.638;11.070;2022-08-14T00:24:16;98016.69;;;18.42;72.13
70445;BME280;57902;49.638;11.070;2022-08-14T00:26:57;98015.00;;;18.41;72.66
70445;BME280;57902;49.638;11.070;2022-08-14T00:29:31;98019.59;;;18.37;71.88
70445;BME280;57902;49.638;11.070;2022-08-14T00:32:08;98012.81;;;18.34;72.80
70445;BME280;57902;49.638;11.070;2022-08-14T00:34:55;98008.50;;;18.33;72.24
70445;BME280;57902;49.638;11.070;2022-08-14T00:37:28;98004.34;;;18.31;72.26
70445;BME280;57902;49.638;11.070;2022-08-14T00:39:57;98007.03;;;18.29;72.21
70445;BME280;57902;49.638;11.070;2022-08-14T00:42:25;98005.59;;;18.25;72.70
70445;BME280;57902;49.638;11.070;2022-08-14T00:45:20;98005.78;;;18.22;72.59
70445;BME280;57902;49.638;11.070;2022-08-14T00:47:47;98002.63;;;18.17;73.03
70445;BME280;57902;49.638;11.070;2022-08-14T00:50:17;98000.22;;;18.14;73.69
70445;BME280;57902;49.638;11.070;2022-08-14T00:52:51;97999.41;;;18.13;73.21
70445;BME280;57902;49.638;11.070;2022-08-14T00:55:18;98003.66;;;18.14;73.51
70445;BME280;57902;49.638;11.070;2022-08-14T00:57:46;98008.97;;;18.13;72.95
70445;BME280;57902;49.638;11.070;2022-08-14T01:00:37;97998.75;;;18.10;73.07
70445;BME280;57902;49.638;11.070;2022-08-14T01:03:23;98002.22;;;18.10;73.23
70445;BME280;57902;49.638;11.070;2022-08-14T01:05:51;97990.09;;;18.09;73.10
70445;BME280;57902;49.638;11.070;2022-08-14T01:08:29;97984.34;;;18.04;73.38
70445;BME280;57902;49.638;11.070;2022-08-14T01:11:20;97994.88;;;18.02;72.95
70445;BME280;57902;49.638;11.070;2022-08-14T01:14:04;97989.84;;;17.99;72.89
70445;BME280;57902;49.638;11.070;2022-08-14T01:16:56;97991.84;;;17.96;73.74
70445;BME280;57902;49.638;11.070;2022-08-14T01:19:26;97981.59;;;17.93;73.82
70445;BME280;57902;49.638;11.070;2022-08-14T01:22:19;97991.19;;;17.92;74.13
70445;BME280;57902;49.638;11.070;2022-08-14T01:24:55;97987.75;;;17.92;73.81
70445;BME280;57902;49.638;11.070;2022-08-14T01:27:23;97983.00;;;17.84;74.84
70445;BME280;57902;49.638;11.070;2022-08-14T01:29:55;97981.31;;;17.83;75.00
70445;BME280;57902;49.638;11.070;2022-08-14T01:32:30;97980.50;;;17.82;75.12
70445;BME280;57902;49.638;11.070;2022-08-14T01:35:04;97983.19;;;17.81;74.77
70445;BME280;57902;49.638;11.070;2022-08-14T01:37:53;97981.72;;;17.77;75.22
70445;BME280;57902;49.638;11.070;2022-08-14T01:40:27;97976.03;;;17.70;75.19
70445;BME280;57902;49.638;11.070;2022-08-14T01:43:13;97970.19;;;17.66;75.55
70445;BME280;57902;49.638;11.070;2022-08-14T01:45:51;97959.97;;;17.63;76.07
70445;BME280;57902;49.638;11.070;2022-08-14T01:48:32;97964.44;;;17.61;76.03
70445;BME280;57902;49.638;11.070;2022-08-14T01:51:04;97958.50;;;17.59;75.96
70445;BME280;57902;49.638;11.070;2022-08-14T01:53:47;97961.09;;;17.59;76.40
70445;BME280;57902;49.638;11.070;2022-08-14T01:56:26;97958.50;;;17.59;75.65
70445;BME280;57902;49.638;11.070;2022-08-14T02:01:48;97961.09;;;17.59;75.60
70445;BME280;57902;49.638;11.070;2022-08-14T02:04:28;97946.47;;;17.57;75.95
70445;BME280;57902;49.638;11.070;2022-08-14T02:07:16;97947.41;;;17.56;75.46
70445;BME280;57902;49.638;11.070;2022-08-14T02:10:03;97948.56;;;17.52;75.76
70445;BME280;57902;49.638;11.070;2022-08-14T02:12:32;97940.81;;;17.50;75.94
70445;BME280;57902;49.638;11.070;2022-08-14T02:15:00;97941.75;;;17.49;76.65
70445;BME280;57902;49.638;11.070;2022-08-14T02:17:27;97937.47;;;17.48;76.36
70445;BME280;57902;49.638;11.070;2022-08-14T02:19:55;97940.09;;;17.48;76.36
70445;BME280;57902;49.638;11.070;2022-08-14T02:22:23;97942.97;;;17.43;75.80
70445;BME280;57902;49.638;11.070;2022-08-14T02:24:58;97940.78;;;17.37;76.00
70445;BME280;57902;49.638;11.070;2022-08-14T02:27:24;97937.50;;;17.34;75.99
70445;BME280;57902;49.638;11.070;2022-08-14T02:30:11;97933.25;;;17.33;76.27
70445;BME280;57902;49.638;11.070;2022-08-14T02:32:39;97918.63;;;17.30;75.07
70445;BME280;57902;49.638;11.070;2022-08-14T02:35:09;97918.94;;;17.25;75.91
70445;BME280;57902;49.638;11.070;2022-08-14T02:37:46;97907.75;;;17.23;76.96
70445;BME280;57902;49.638;11.070;2022-08-14T02:40:16;97906.84;;;17.24;76.87
70445;BME280;57902;49.638;11.070;2022-08-14T02:42:44;97899.03;;;17.24;76.65
70445;BME280;57902;49.638;11.070;2022-08-14T02:45:26;97900.78;;;17.24;77.02
70445;BME280;57902;49.638;11.070;2022-08-14T02:48:10;97902.75;;;17.20;76.70
70445;BME280;57902;49.638;11.070;2022-08-14T02:50:58;97904.72;;;17.17;77.69
70445;BME280;57902;49.638;11.070;2022-08-14T02:53:27;97901.34;;;17.14;77.45
70445;BME280;57902;49.638;11.070;2022-08-14T02:55:55;97888.34;;;17.14;77.38
70445;BME280;57902;49.638;11.070;2022-08-14T02:58:29;97889.28;;;17.13;76.62
70445;BME280;57902;49.638;11.070;2022-08-14T03:00:57;97889.44;;;17.10;76.42
70445;BME280;57902;49.638;11.070;2022-08-14T03:03:24;97886.94;;;17.09;76.60
70445;BME280;57902;49.638;11.070;2022-08-14T03:05:51;97886.50;;;17.02;76.97
70445;BME280;57902;49.638;11.070;2022-08-14T03:08:20;97890.88;;;17.02;77.48
70445;BME280;57902;49.638;11.070;2022-08-14T03:10:47;97883.34;;;16.97;77.45
70445;BME280;57902;49.638;11.070;2022-08-14T03:13:16;97883.53;;;16.94;78.14
70445;BME280;57902;49.638;11.070;2022-08-14T03:15:46;97886.22;;;16.92;77.73
70445;BME280;57902;49.638;11.070;2022-08-14T03:18:23;97881.22;;;16.89;78.18
70445;BME280;57902;49.638;11.070;2022-08-14T03:21:05;97875.19;;;16.89;78.63
70445;BME280;57902;49.638;11.070;2022-08-14T03:23:36;97886.53;;;16.88;78.46
70445;BME280;57902;49.638;11.070;2022-08-14T03:26:12;97878.78;;;16.86;79.51
70445;BME280;57902;49.638;11.070;2022-08-14T03:28:54;97881.47;;;16.85;79.10
70445;BME280;57902;49.638;11.070;2022-08-14T03:31:27;97882.50;;;16.82;78.11
70445;BME280;57902;49.638;11.070;2022-08-14T03:33:55;97882.50;;;16.82;78.18
70445;BME280;57902;49.638;11.070;2022-08-14T03:36:26;97879.88;;;16.82;78.81
70445;BME280;57902;49.638;11.070;2022-08-14T03:39:12;97877.28;;;16.82;79.46
70445;BME280;57902;49.638;11.070;2022-08-14T03:41:54;97874.97;;;16.77;79.46
70445;BME280;57902;49.638;11.070;2022-08-14T03:44:25;97869.75;;;16.77;78.78
70445;BME280;57902;49.638;11.070;2022-08-14T03:47:11;97866.53;;;16.74;79.44
70445;BME280;57902;49.638;11.070;2022-08-14T03:49:40;97854.53;;;16.71;79.28
70445;BME280;57902;49.638;11.070;2022-08-14T03:52:14;97858.34;;;16.66;79.17
70445;BME280;57902;49.638;11.070;2022-08-14T03:55:01;97857.50;;;16.65;80.28
70445;BME280;57902;49.638;11.070;2022-08-14T03:57:29;97855.66;;;16.67;80.23
70445;BME280;57902;49.638;11.070;2022-08-14T04:00:10;97843.56;;;16.66;77.95
70445;BME280;57902;49.638;11.070;2022-08-14T04:02:52;97846.25;;;16.65;78.69
70445;BME280;57902;49.638;11.070;2022-08-14T04:05:20;97846.44;;;16.61;79.65
70445;BME280;57902;49.638;11.070;2022-08-14T04:07:48;97845.53;;;16.62;79.31
70445;BME280;57902;49.638;11.070;2022-08-14T04:10:34;97840.31;;;16.62;78.84
70445;BME280;57902;49.638;11.070;2022-08-14T04:13:02;97832.50;;;16.62;78.86
70445;BME280;57902;49.638;11.070;2022-08-14T04:15:32;97823.94;;;16.60;80.12
70445;BME280;57902;49.638;11.070;2022-08-14T04:18:19;97817.91;;;16.60;79.12
70445;BME280;57902;49.638;11.070;2022-08-14T04:20:46;97823.78;;;16.64;79.48
70445;BME280;57902;49.638;11.070;2022-08-14T04:23:20;97817.63;;;16.65;79.16
70445;BME280;57902;49.638;11.070;2022-08-14T04:25:49;97823.41;;;16.70;79.24
70445;BME280;57902;49.638;11.070;2022-08-14T04:28:20;97816.13;;;16.75;79.01
70445;BME280;57902;49.638;11.070;2022-08-14T04:31:06;97814.44;;;16.88;80.34
70445;BME280;57902;49.638;11.070;2022-08-14T04:33:36;97811.41;;;17.09;79.93
70445;BME280;57902;49.638;11.070;2022-08-14T04:36:03;97809.94;;;17.32;78.67
70445;BME280;57902;49.638;11.070;2022-08-14T04:38:30;97806.56;;;17.57;77.65
70445;BME280;57902;49.638;11.070;2022-08-14T04:41:15;97804.75;;;17.85;75.88
70445;BME280;57902;49.638;11.070;2022-08-14T04:44:03;97802.47;;;18.19;74.96
70445;BME280;57902;49.638;11.070;2022-08-14T04:46:33;97800.47;;;18.48;74.17
70445;BME280;57902;49.638;11.070;2022-08-14T04:49:19;97796.03;;;18.87;73.35
70445;BME280;57902;49.638;11.070;2022-08-14T04:51:48;97803.41;;;19.31;71.01
70445;BME280;57902;49.638;11.070;2022-08-14T04:54:22;97802.50;;;19.79;69.16
70445;BME280;57902;49.638;11.070;2022-08-14T04:56:54;97796.63;;;20.22;68.04
70445;BME280;57902;49.638;11.070;2022-08-14T04:59:22;97793.50;;;20.62;65.87
70445;BME280;57902;49.638;11.070;2022-08-14T05:01:49;97789.47;;;20.80;65.16
70445;BME280;57902;49.638;11.070;2022-08-14T05:04:22;97796.72;;;21.00;65.51
70445;BME280;57902;49.638;11.070;2022-08-14T05:06:52;97799.81;;;21.26;64.22
70445;BME280;57902;49.638;11.070;2022-08-14T05:09:22;97798.69;;;21.51;63.39
70445;BME280;57902;49.638;11.070;2022-08-14T05:11:48;97797.91;;;21.81;61.70
70445;BME280;57902;49.638;11.070;2022-08-14T05:14:17;97803.22;;;22.12;61.49
70445;BME280;57902;49.638;11.070;2022-08-14T05:17:04;97804.50;;;22.49;60.52
70445;BME280;57902;49.638;11.070;2022-08-14T05:19:32;97803.53;;;22.81;59.51
70445;BME280;57902;49.638;11.070;2022-08-14T05:22:02;97807.06;;;23.20;57.96
70445;BME280;57902;49.638;11.070;2022-08-14T05:24:44;97804.31;;;23.51;58.11
70445;BME280;57902;49.638;11.070;2022-08-14T05:27:16;97812.59;;;23.76;56.34
70445;BME280;57902;49.638;11.070;2022-08-14T05:29:48;97811.06;;;24.03;55.16
70445;BME280;57902;49.638;11.070;2022-08-14T05:32:15;97811.00;;;24.22;55.03
70445;BME280;57902;49.638;11.070;2022-08-14T05:34:43;97805.72;;;24.22;55.07
70445;BME280;57902;49.638;11.070;2022-08-14T05:37:11;97802.34;;;24.40;55.43
70445;BME280;57902;49.638;11.070;2022-08-14T05:39:40;97802.97;;;24.61;55.03
70445;BME280;57902;49.638;11.070;2022-08-14T05:42:07;97799.94;;;24.84;54.62
70445;BME280;57902;49.638;11.070;2022-08-14T05:44:47;97806.06;;;25.30;52.97
70445;BME280;57902;49.638;11.070;2022-08-14T05:47:14;97800.81;;;25.75;51.44
70445;BME280;57902;49.638;11.070;2022-08-14T05:49:42;97804.88;;;26.13;50.84
70445;BME280;57902;49.638;11.070;2022-08-14T05:52:09;97812.03;;;26.47;49.70
70445;BME280;57902;49.638;11.070;2022-08-14T05:54:43;97808.19;;;26.76;48.66
70445;BME280;57902;49.638;11.070;2022-08-14T05:57:09;97815.72;;;26.97;49.66
70445;BME280;57902;49.638;11.070;2022-08-14T05:59:36;97814.44;;;27.26;47.68
70445;BME280;57902;49.638;11.070;2022-08-14T06:02:06;97820.44;;;27.45;47.55
70445;BME280;57902;49.638;11.070;2022-08-14T06:04:35;97831.69;;;27.63;45.71
70445;BME280;57902;49.638;11.070;2022-08-14T06:07:02;97831.69;;;27.47;46.13
70445;BME280;57902;49.638;11.070;2022-08-14T06:09:29;97830.34;;;27.42;47.97
70445;BME280;57902;49.638;11.070;2022-08-14T06:12:09;97836.97;;;27.63;46.48
70445;BME280;57902;49.638;11.070;2022-08-14T06:14:37;97833.19;;;27.57;46.80
70445;BME280;57902;49.638;11.070;2022-08-14T06:17:05;97835.00;;;27.90;46.77
70445;BME280;57902;49.638;11.070;2022-08-14T06:19:32;97838.28;;;28.33;45.73
70445;BME280;57902;49.638;11.070;2022-08-14T06:21:58;97844.06;;;28.37;46.72
70445;BME280;57902;49.638;11.070;2022-08-14T06:24:27;97833.75;;;28.98;44.59
70445;BME280;57902;49.638;11.070;2022-08-14T06:27:00;97830.66;;;29.18;44.49
70445;BME280;57902;49.638;11.070;2022-08-14T06:29:36;97836.84;;;29.64;42.24
70445;BME280;57902;49.638;11.070;2022-08-14T06:32:03;97837.44;;;29.52;42.47
70445;BME280;57902;49.638;11.070;2022-08-14T06:34:50;97818.34;;;29.48;42.33
70445;BME280;57902;49.638;11.070;2022-08-14T06:37:40;97825.78;;;29.53;42.27
70445;BME280;57902;49.638;11.070;2022-08-14T06:40:09;97826.91;;;29.58;43.07
70445;BME280;57902;49.638;11.070;2022-08-14T06:42:57;97827.13;;;29.95;42.31
70445;BME280;57902;49.638;11.070;2022-08-14T06:45:29;97823.78;;;29.78;41.46
70445;BME280;57902;49.638;11.070;2022-08-14T06:47:56;97823.84;;;30.08;41.19
70445;BME280;57902;49.638;11.070;2022-08-14T06:50:24;97809.50;;;30.47;40.78
70445;BME280;57902;49.638;11.070;2022-08-14T06:52:56;97818.13;;;30.49;39.75
70445;BME280;57902;49.638;11.070;2022-08-14T06:55:23;97818.38;;;30.84;39.95
70445;BME280;57902;49.638;11.070;2022-08-14T06:57:53;97828.31;;;30.45;39.69
70445;BME280;57902;49.638;11.070;2022-08-14T07:00:22;97825.72;;;30.67;41.08
70445;BME280;57902;49.638;11.070;2022-08-14T07:02:57;97823.50;;;30.85;39.90
70445;BME280;57902;49.638;11.070;2022-08-14T07:05:43;97819.06;;;30.93;39.95
70445;BME280;57902;49.638;11.070;2022-08-14T07:08:26;97820.09;;;30.92;39.40
70445;BME280;57902;49.638;11.070;2022-08-14T07:11:00;97816.03;;;30.44;40.64
70445;BME280;57902;49.638;11.070;2022-08-14T07:13:29;97810.50;;;31.12;38.77
70445;BME280;57902;49.638;11.070;2022-08-14T07:15:57;97814.16;;;31.26;38.79
70445;BME280;57902;49.638;11.070;2022-08-14T07:18:32;97819.91;;;30.93;38.92
70445;BME280;57902;49.638;11.070;2022-08-14T07:21:00;97821.97;;;31.13;37.94
70445;BME280;57902;49.638;11.070;2022-08-14T07:23:27;97814.56;;;31.08;38.70
70445;BME280;57902;49.638;11.070;2022-08-14T07:25:57;97820.75;;;30.94;37.87
70445;BME280;57902;49.638;11.070;2022-08-14T07:28:29;97819.00;;;31.22;38.68
70445;BME280;57902;49.638;11.070;2022-08-14T07:30:59;97824.75;;;31.41;38.68
70445;BME280;57902;49.638;11.070;2022-08-14T07:33:36;97820.28;;;31.70;38.27
70445;BME280;57902;49.638;11.070;2022-08-14T07:36:09;97812.94;;;31.50;38.07
70445;BME280;57902;49.638;11.070;2022-08-14T07:38:58;97806.53;;;31.66;37.88
70445;BME280;57902;49.638;11.070;2022-08-14T07:41:25;97807.69;;;32.07;37.04
70445;BME280;57902;49.638;11.070;2022-08-14T07:43:58;97803.78;;;32.38;36.08
70445;BME280;57902;49.638;11.070;2022-08-14T07:46:45;97800.91;;;32.11;36.17
70445;BME280;57902;49.638;11.070;2022-08-14T07:49:11;97799.78;;;32.62;36.13
70445;BME280;57902;49.638;11.070;2022-08-14T07:51:43;97795.56;;;32.81;36.00
70445;BME280;57902;49.638;11.070;2022-08-14T07:54:10;97796.91;;;33.05;34.60
70445;BME280;57902;49.638;11.070;2022-08-14T07:56:41;97792.75;;;32.89;34.93
70445;BME280;57902;49.638;11.070;2022-08-14T07:59:13;97790.88;;;32.83;34.89
70445;BME280;57902;49.638;11.070;2022-08-14T08:01:43;97790.97;;;32.61;36.13
70445;BME280;57902;49.638;11.070;2022-08-14T08:04:21;97785.19;;;32.51;34.35
70445;BME280;57902;49.638;11.070;2022-08-14T08:06:50;97782.47;;;32.44;35.05
70445;BME280;57902;49.638;11.070;2022-08-14T08:09:21;97787.88;;;32.16;35.54
70445;BME280;57902;49.638;11.070;2022-08-14T08:11:49;97783.53;;;32.50;34.48
70445;BME280;57902;49.638;11.070;2022-08-14T08:14:23;97774.19;;;32.33;35.03
70445;BME280;57902;49.638;11.070;2022-08-14T08:16:52;97773.66;;;32.51;35.07
70445;BME280;57902;49.638;11.070;2022-08-14T08:19:19;97769.25;;;32.23;34.33
70445;BME280;57902;49.638;11.070;2022-08-14T08:21:46;97754.72;;;32.39;34.48
70445;BME280;57902;49.638;11.070;2022-08-14T08:24:13;97759.75;;;32.55;34.46
70445;BME280;57902;49.638;11.070;2022-08-14T08:26:46;97760.97;;;32.59;32.11
70445;BME280;57902;49.638;11.070;2022-08-14T08:29:20;97756.19;;;32.83;33.14
70445;BME280;57902;49.638;11.070;2022-08-14T08:31:57;97768.19;;;32.66;33.62
70445;BME280;57902;49.638;11.070;2022-08-14T08:34:30;97755.25;;;32.62;32.82
70445;BME280;57902;49.638;11.070;2022-08-14T08:36:57;97763.38;;;32.89;33.10
70445;BME280;57902;49.638;11.070;2022-08-14T08:39:27;97747.88;;;32.65;33.73
70445;BME280;57902;49.638;11.070;2022-08-14T08:42:24;97750.44;;;32.93;32.67
70445;BME280;57902;49.638;11.070;2022-08-14T08:45:05;97749.81;;;32.97;33.03
70445;BME280;57902;49.638;11.070;2022-08-14T08:47:39;97750.22;;;32.94;31.91
70445;BME280;57902;49.638;11.070;2022-08-14T08:50:30;97748.31;;;31.91;34.54
70445;BME280;57902;49.638;11.070;2022-08-14T08:53:00;97741.59;;;32.31;35.10
70445;BME280;57902;49.638;11.070;2022-08-14T08:55:31;97738.16;;;32.50;34.71
70445;BME280;57902;49.638;11.070;2022-08-14T08:58:10;97736.63;;;32.69;35.55
70445;BME280;57902;49.638;11.070;2022-08-14T09:00:49;97749.88;;;33.18;34.57
70445;BME280;57902;49.638;11.070;2022-08-14T09:03:22;97742.84;;;33.03;33.21
70445;BME280;57902;49.638;11.070;2022-08-14T09:05:53;97744.31;;;33.06;33.04
70445;BME280;57902;49.638;11.070;2022-08-14T09:08:27;97741.44;;;33.14;33.23
70445;BME280;57902;49.638;11.070;2022-08-14T09:11:00;97728.88;;;33.08;33.60
70445;BME280;57902;49.638;11.070;2022-08-14T09:13:27;97727.66;;;33.10;33.44
70445;BME280;57902;49.638;11.070;2022-08-14T09:15:58;97717.81;;;33.04;34.10
70445;BME280;57902;49.638;11.070;2022-08-14T09:18:44;97721.69;;;32.88;34.67
70445;BME280;57902;49.638;11.070;2022-08-14T09:24:59;97723.41;;;33.49;34.39
70445;BME280;57902;49.638;11.070;2022-08-14T09:27:25;97730.56;;;33.69;32.27
70445;BME280;57902;49.638;11.070;2022-08-14T09:29:52;97730.19;;;33.79;30.85
70445;BME280;57902;49.638;11.070;2022-08-14T09:32:29;97727.09;;;33.82;31.28
70445;BME280;57902;49.638;11.070;2022-08-14T09:35:23;97727.94;;;33.42;31.17
70445;BME280;57902;49.638;11.070;2022-08-14T09:38:07;97722.47;;;32.69;32.39
70445;BME280;57902;49.638;11.070;2022-08-14T09:46:22;97711.25;;;32.38;33.26
70445;BME280;57902;49.638;11.070;2022-08-14T09:49:06;97712.72;;;32.06;33.36
70445;BME280;57902;49.638;11.070;2022-08-14T09:51:42;97706.28;;;31.93;33.08
70445;BME280;57902;49.638;11.070;2022-08-14T09:54:34;97705.97;;;31.75;34.08
70445;BME280;57902;49.638;11.070;2022-08-14T09:57:02;97708.56;;;31.40;34.89
70445;BME280;57902;49.638;11.070;2022-08-14T09:59:45;97721.06;;;31.39;34.78
70445;BME280;57902;49.638;11.070;2022-08-14T10:02:27;97702.75;;;31.30;35.20
70445;BME280;57902;49.638;11.070;2022-08-14T10:05:06;97697.41;;;31.30;34.75
70445;BME280;57902;49.638;11.070;2022-08-14T10:07:45;97708.06;;;31.30;33.59
70445;BME280;57902;49.638;11.070;2022-08-14T10:10:30;97701.03;;;31.22;33.77
70445;BME280;57902;49.638;11.070;2022-08-14T10:13:05;97692.22;;;31.21;33.88
70445;BME280;57902;49.638;11.070;2022-08-14T10:15:37;97694.06;;;31.21;33.65
70445;BME280;57902;49.638;11.070;2022-08-14T10:18:10;97693.13;;;31.07;33.97
70445;BME280;57902;49.638;11.070;2022-08-14T10:23:24;97670.84;;;30.71;34.08
70445;BME280;57902;49.638;11.070;2022-08-14T10:26:05;97666.63;;;30.56;34.54
70445;BME280;57902;49.638;11.070;2022-08-14T10:28:43;97667.47;;;30.41;34.76
70445;BME280;57902;49.638;11.070;2022-08-14T10:31:30;97663.78;;;30.27;35.70
70445;BME280;57902;49.638;11.070;2022-08-14T10:34:12;97654.38;;;30.25;35.41
70445;BME280;57902;49.638;11.070;2022-08-14T10:36:44;97651.63;;;30.18;35.72
70445;BME280;57902;49.638;11.070;2022-08-14T10:39:27;97641.38;;;30.15;35.18
70445;BME280;57902;49.638;11.070;2022-08-14T10:42:03;97647.63;;;30.07;35.48
70445;BME280;57902;49.638;11.070;2022-08-14T10:44:44;97653.19;;;30.12;34.89
70445;BME280;57902;49.638;11.070;2022-08-14T10:47:13;97644.22;;;30.13;34.71
70445;BME280;57902;49.638;11.070;2022-08-14T10:50:00;97641.13;;;30.31;34.84
70445;BME280;57902;49.638;11.070;2022-08-14T10:52:29;97654.25;;;30.33;34.90
70445;BME280;57902;49.638;11.070;2022-08-14T10:55:14;97640.09;;;30.11;35.15
70445;BME280;57902;49.638;11.070;2022-08-14T10:57:51;97632.66;;;30.06;35.18
70445;BME280;57902;49.638;11.070;2022-08-14T11:00:21;97630.63;;;30.08;35.49
70445;BME280;57902;49.638;11.070;2022-08-14T11:03:10;97631.38;;;30.02;35.72
70445;BME280;57902;49.638;11.070;2022-08-14T11:05:48;97632.84;;;30.05;35.78
70445;BME280;57902;49.638;11.070;2022-08-14T11:08:31;97629.81;;;30.08;35.51
70445;BME280;57902;49.638;11.070;2022-08-14T11:11:02;97626.22;;;30.15;35.45
70445;BME280;57902;49.638;11.070;2022-08-14T11:13:30;97625.25;;;30.01;35.07
70445;BME280;57902;49.638;11.070;2022-08-14T11:15:59;97621.97;;;29.84;35.72
70445;BME280;57902;49.638;11.070;2022-08-14T11:18:26;97623.44;;;29.72;36.05
70445;BME280;57902;49.638;11.070;2022-08-14T11:21:03;97619.75;;;29.58;36.55
70445;BME280;57902;49.638;11.070;2022-08-14T11:23:35;97618.19;;;29.49;35.72
70445;BME280;57902;49.638;11.070;2022-08-14T11:26:07;97615.00;;;29.39;36.38
70445;BME280;57902;49.638;11.070;2022-08-14T11:28:40;97610.97;;;29.43;36.25
70445;BME280;57902;49.638;11.070;2022-08-14T11:31:22;97611.22;;;29.63;35.89
70445;BME280;57902;49.638;11.070;2022-08-14T11:33:53;97603.81;;;29.73;35.03
70445;BME280;57902;49.638;11.070;2022-08-14T11:36:23;97590.81;;;29.78;35.55
70445;BME280;57902;49.638;11.070;2022-08-14T11:39:18;97597.22;;;29.99;34.49
70445;BME280;57902;49.638;11.070;2022-08-14T11:42:03;97580.53;;;30.05;35.05
70445;BME280;57902;49.638;11.070;2022-08-14T11:44:55;97586.78;;;30.34;34.49
70445;BME280;57902;49.638;11.070;2022-08-14T11:47:26;97584.16;;;30.56;33.60
70445;BME280;57902;49.638;11.070;2022-08-14T11:50:17;97584.78;;;30.79;33.76
70445;BME280;57902;49.638;11.070;2022-08-14T11:53:03;97580.88;;;31.03;32.97
70445;BME280;57902;49.638;11.070;2022-08-14T11:55:36;97585.69;;;31.15;32.19
70445;BME280;57902;49.638;11.070;2022-08-14T11:58:09;97571.06;;;31.04;32.20
70445;BME280;57902;49.638;11.070;2022-08-14T12:00:53;97566.59;;;31.11;32.66
70445;BME280;57902;49.638;11.070;2022-08-14T12:03:20;97569.50;;;31.16;32.88
70445;BME280;57902;49.638;11.070;2022-08-14T12:06:12;97575.53;;;31.32;32.22
70445;BME280;57902;49.638;11.070;2022-08-14T12:08:58;97556.78;;;31.47;31.86
70445;BME280;57902;49.638;11.070;2022-08-14T12:11:36;97557.91;;;31.59;31.92
70445;BME280;57902;49.638;11.070;2022-08-14T12:14:10;97554.44;;;31.65;31.66
70445;BME280;57902;49.638;11.070;2022-08-14T12:17:05;97553.38;;;31.60;31.40
70445;BME280;57902;49.638;11.070;2022-08-14T12:19:55;97545.94;;;31.48;32.12
70445;BME280;57902;49.638;11.070;2022-08-14T12:22:35;97537.34;;;31.53;30.74
70445;BME280;57902;49.638;11.070;2022-08-14T12:25:03;97535.69;;;31.52;31.83
70445;BME280;57902;49.638;11.070;2022-08-14T12:27:38;97536.91;;;31.43;31.65
70445;BME280;57902;49.638;11.070;2022-08-14T12:30:36;97523.34;;;31.37;31.52
70445;BME280;57902;49.638;11.070;2022-08-14T12:33:23;97541.09;;;31.30;31.85
70445;BME280;57902;49.638;11.070;2022-08-14T12:36:01;97533.72;;;31.26;31.91
70445;BME280;57902;49.638;11.070;2022-08-14T12:38:36;97530.25;;;31.25;32.01
70445;BME280;57902;49.638;11.070;2022-08-14T12:41:11;97525.81;;;31.04;32.37
70445;BME280;57902;49.638;11.070;2022-08-14T12:46:25;97521.31;;;31.39;31.84
70445;BME280;57902;49.638;11.070;2022-08-14T12:48:55;97517.16;;;31.30;32.17
70445;BME280;57902;49.638;11.070;2022-08-14T12:51:24;97509.25;;;31.44;31.16
70445;BME280;57902;49.638;11.070;2022-08-14T12:53:54;97503.31;;;31.48;31.72
70445;BME280;57902;49.638;11.070;2022-08-14T12:56:25;97505.13;;;31.41;31.49
70445;BME280;57902;49.638;11.070;2022-08-14T12:58:59;97509.41;;;31.42;31.26
70445;BME280;57902;49.638;11.070;2022-08-14T13:01:28;97498.34;;;31.38;32.24
70445;BME280;57902;49.638;11.070;2022-08-14T13:04:04;97480.88;;;31.22;31.51
70445;BME280;57902;49.638;11.070;2022-08-14T13:06:36;97463.38;;;31.06;31.98
70445;BME280;57902;49.638;11.070;2022-08-14T13:09:04;97473.22;;;31.06;31.66
70445;BME280;57902;49.638;11.070;2022-08-14T13:11:44;97464.41;;;30.77;32.27
70445;BME280;57902;49.638;11.070;2022-08-14T13:14:16;97462.28;;;30.66;32.22
70445;BME280;57902;49.638;11.070;2022-08-14T13:16:44;97465.50;;;30.61;32.35
70445;BME280;57902;49.638;11.070;2022-08-14T13:19:16;97460.66;;;30.22;32.75
70445;BME280;57902;49.638;11.070;2022-08-14T13:21:48;97459.16;;;30.12;33.18
70445;BME280;57902;49.638;11.070;2022-08-14T13:24:31;97458.91;;;30.07;33.61
70445;BME280;57902;49.638;11.070;2022-08-14T13:26:59;97450.56;;;30.10;33.57
70445;BME280;57902;49.638;11.070;2022-08-14T13:29:32;97452.94;;;30.27;32.70
70445;BME280;57902;49.638;11.070;2022-08-14T13:32:05;97451.97;;;30.34;32.85
70445;BME280;57902;49.638;11.070;2022-08-14T13:34:34;97440.72;;;30.32;32.86
70445;BME280;57902;49.638;11.070;2022-08-14T13:37:02;97437.19;;;30.25;33.03
70445;BME280;57902;49.638;11.070;2022-08-14T13:39:32;97443.09;;;29.99;32.82
70445;BME280;57902;49.638;11.070;2022-08-14T13:42:03;97430.31;;;29.88;33.27
70445;BME280;57902;49.638;11.070;2022-08-14T13:44:36;97418.44;;;29.68;34.05
70445;BME280;57902;49.638;11.070;2022-08-14T13:47:07;97415.72;;;29.62;34.04
70445;BME280;57902;49.638;11.070;2022-08-14T13:49:35;97413.88;;;29.62;33.61
70445;BME280;57902;49.638;11.070;2022-08-14T13:52:08;97413.78;;;29.34;33.89